createdAt,value
2018-03-04T00:00:32.565Z,42.03
2018-03-04T00:03:00.141Z,52.67
2018-03-04T00:05:27.836Z,42.20
2018-03-04T00:07:55.538Z,36.60
2018-03-04T00:10:23.164Z,43.67
2018-03-04T00:12:50.797Z,50.77
2018-03-04T00:15:18.454Z,38.90
2018-03-04T00:17:46.104Z,41.17
2018-03-04T00:20:13.720Z,43.93
2018-03-04T00:22:41.716Z,36.43
2018-03-04T00:25:10.404Z,44.13
2018-03-04T00:27:38.121Z,50.30
2018-03-04T00:30:05.750Z,38.53
2018-03-04T00:32:33.372Z,40.30
2018-03-04T00:35:00.954Z,42.37
2018-03-04T00:37:28.593Z,41.37
2018-03-04T00:39:56.200Z,41.93
2018-03-04T00:42:23.787Z,51.00
2018-03-04T00:44:51.409Z,45.73
2018-03-04T00:47:19.629Z,45.13
2018-03-04T00:49:47.276Z,40.33
2018-03-04T00:52:15.155Z,47.00
2018-03-04T00:54:42.790Z,44.10
2018-03-04T00:57:10.563Z,44.80
2018-03-04T00:59:38.176Z,43.33
2018-03-04T01:02:05.827Z,44.67
2018-03-04T01:04:33.409Z,42.63
2018-03-04T01:07:01.010Z,44.50
2018-03-04T01:09:30.012Z,40.80
2018-03-04T01:11:57.594Z,45.30
2018-03-04T01:14:25.183Z,54.97
2018-03-04T01:16:52.781Z,35.00
2018-03-04T01:19:21.245Z,47.83
2018-03-04T01:21:48.817Z,42.67
2018-03-04T01:24:16.416Z,44.10
2018-03-04T01:26:44.002Z,36.60
2018-03-04T01:29:11.638Z,42.10
2018-03-04T01:31:39.232Z,35.60
2018-03-04T01:34:06.924Z,44.17
2018-03-04T01:36:34.532Z,42.43
2018-03-04T01:39:02.122Z,41.60
2018-03-04T01:41:29.905Z,51.67
2018-03-04T01:43:57.574Z,48.20
2018-03-04T01:46:25.152Z,39.03
2018-03-04T01:48:52.711Z,36.93
2018-03-04T01:51:21.506Z,38.53
2018-03-04T01:53:49.478Z,31.60
2018-03-04T01:56:17.088Z,39.13
2018-03-04T01:58:45.702Z,40.33
2018-03-04T02:01:13.347Z,36.73
2018-03-04T02:03:40.938Z,53.33
2018-03-04T02:06:08.622Z,44.63
2018-03-04T02:08:36.325Z,48.90
2018-03-04T02:11:03.977Z,47.63
2018-03-04T02:13:31.605Z,46.97
2018-03-04T02:15:59.741Z,45.00
2018-03-04T02:18:27.559Z,44.70
2018-03-04T02:20:55.423Z,49.30
2018-03-04T02:23:23.101Z,38.97
2018-03-04T02:25:50.782Z,45.77
2018-03-04T02:28:18.352Z,42.10
2018-03-04T02:30:46.146Z,44.30
2018-03-04T02:33:15.286Z,48.97
2018-03-04T02:35:42.856Z,30.83
2018-03-04T02:38:10.535Z,46.37
2018-03-04T02:40:38.163Z,34.87
2018-03-04T02:43:06.099Z,41.93
2018-03-04T02:45:34.090Z,44.33
2018-03-04T02:48:01.718Z,44.43
2018-03-04T02:50:29.343Z,44.87
2018-03-04T02:52:57.001Z,42.87
2018-03-04T02:55:25.832Z,56.20
2018-03-04T02:57:53.462Z,41.93
2018-03-04T03:00:21.085Z,43.17
2018-03-04T03:02:48.702Z,42.00
2018-03-04T03:05:16.275Z,42.00
2018-03-04T03:07:43.941Z,41.63
2018-03-04T03:10:11.747Z,53.27
2018-03-04T03:12:41.090Z,52.13
2018-03-04T03:15:09.393Z,52.80
2018-03-04T03:17:37.467Z,40.20
2018-03-04T03:20:05.077Z,38.77
2018-03-04T03:22:32.666Z,69.03
2018-03-04T03:25:01.002Z,70.33
2018-03-04T03:27:28.690Z,48.67
2018-03-04T03:29:59.305Z,47.70
2018-03-04T03:32:28.998Z,47.73
2018-03-04T03:34:56.791Z,43.57
2018-03-04T03:37:24.391Z,47.13
2018-03-04T03:39:52.013Z,51.77
2018-03-04T03:42:19.652Z,49.83
2018-03-04T03:44:47.256Z,54.07
2018-03-04T03:47:14.929Z,39.60
2018-03-04T03:49:48.452Z,43.17
2018-03-04T03:52:18.474Z,51.03
2018-03-04T03:54:47.016Z,50.80
2018-03-04T03:57:19.271Z,42.30
2018-03-04T03:59:47.391Z,43.47
2018-03-04T04:02:15.034Z,37.00
2018-03-04T04:04:42.788Z,39.80
2018-03-04T04:07:11.136Z,53.13
2018-03-04T04:09:38.764Z,37.27
2018-03-04T04:12:06.360Z,37.33
2018-03-04T04:14:33.965Z,44.87
2018-03-04T04:17:01.604Z,37.07
2018-03-04T04:19:29.925Z,41.23
2018-03-04T04:21:57.642Z,40.20
2018-03-04T04:24:25.558Z,39.97
2018-03-04T04:26:53.144Z,34.00
2018-03-04T04:29:22.511Z,36.70
2018-03-04T04:31:50.177Z,46.50
2018-03-04T04:34:17.789Z,43.40
2018-03-04T04:36:45.682Z,40.07
2018-03-04T04:39:13.333Z,36.77
2018-03-04T04:41:40.910Z,33.70
2018-03-04T04:44:09.770Z,38.83
2018-03-04T04:46:37.437Z,41.27
2018-03-04T04:49:05.383Z,38.13
2018-03-04T04:51:33.012Z,36.37
2018-03-04T04:54:00.618Z,42.83
2018-03-04T04:56:28.221Z,36.77
2018-03-04T04:58:55.850Z,33.13
2018-03-04T05:01:23.461Z,48.63
2018-03-04T05:03:51.038Z,47.03
2018-03-04T05:06:18.872Z,47.73
2018-03-04T05:08:46.484Z,42.03
2018-03-04T05:11:14.638Z,41.97
2018-03-04T05:13:42.337Z,51.27
2018-03-04T05:16:10.058Z,43.63
2018-03-04T05:18:37.638Z,47.13
2018-03-04T05:21:05.741Z,45.23
2018-03-04T05:23:36.384Z,41.80
2018-03-04T05:26:03.989Z,44.10
2018-03-04T05:28:31.584Z,41.03
2018-03-04T05:30:59.177Z,41.63
2018-03-04T05:33:29.250Z,42.30
2018-03-04T05:35:57.004Z,42.43
2018-03-04T05:38:25.005Z,39.03
2018-03-04T05:40:52.608Z,48.80
2018-03-04T05:43:21.152Z,40.50
2018-03-04T05:45:48.752Z,46.60
2018-03-04T05:48:16.347Z,45.33
2018-03-04T05:50:44.029Z,47.43
2018-03-04T05:53:11.887Z,37.07
2018-03-04T05:55:39.474Z,44.57
2018-03-04T05:58:07.087Z,34.07
2018-03-04T06:03:25.649Z,45.40
2018-03-04T06:05:58.052Z,76.33
2018-03-04T06:08:27.060Z,47.90
2018-03-04T06:10:54.675Z,45.37
2018-03-04T06:13:23.689Z,44.30
2018-03-04T06:15:51.294Z,39.87
2018-03-04T06:18:18.895Z,40.80
2018-03-04T06:20:46.444Z,43.73
2018-03-04T06:23:15.003Z,41.83
2018-03-04T06:25:42.684Z,52.53
2018-03-04T06:28:10.371Z,47.00
2018-03-04T06:30:37.952Z,50.43
2018-03-04T06:33:06.225Z,57.20
2018-03-04T06:35:34.123Z,69.23
2018-03-04T06:38:01.745Z,42.00
2018-03-04T06:40:29.421Z,67.17
2018-03-04T06:42:56.999Z,45.90
2018-03-04T06:45:24.575Z,47.10
2018-03-04T06:47:52.177Z,48.27
2018-03-04T06:50:19.767Z,44.37
2018-03-04T06:52:47.348Z,48.20
2018-03-04T06:55:15.019Z,47.87
2018-03-04T06:57:42.611Z,46.37
2018-03-04T07:00:10.201Z,38.70
2018-03-04T07:02:37.802Z,48.27
2018-03-04T07:05:05.406Z,54.03
2018-03-04T07:07:35.887Z,44.90
2018-03-04T07:10:03.663Z,46.13
2018-03-04T07:12:33.444Z,41.07
2018-03-04T07:15:01.027Z,41.77
2018-03-04T07:17:28.639Z,42.80
2018-03-04T07:19:57.317Z,48.20
2018-03-04T07:22:24.871Z,37.80
2018-03-04T07:24:52.467Z,44.93
2018-03-04T07:27:21.849Z,60.13
2018-03-04T07:29:49.473Z,57.93
2018-03-04T07:32:21.348Z,46.57
2018-03-04T07:34:48.934Z,48.57
2018-03-04T07:37:18.217Z,54.90
2018-03-04T07:42:19.748Z,57.97
2018-03-04T07:44:47.346Z,51.70
2018-03-04T07:47:19.032Z,45.33
2018-03-04T07:49:49.724Z,42.37
2018-03-04T07:52:17.293Z,51.07
2018-03-04T07:54:44.873Z,46.80
2018-03-04T07:57:13.924Z,62.40
2018-03-04T07:59:42.970Z,50.93
2018-03-04T08:02:11.654Z,52.37
2018-03-04T08:04:39.265Z,47.10
2018-03-04T08:07:07.197Z,50.53
2018-03-04T08:09:35.152Z,52.87
2018-03-04T08:12:02.776Z,54.63
2018-03-04T08:14:30.345Z,46.70
2018-03-04T08:16:58.026Z,44.03
2018-03-04T08:19:25.674Z,53.67
2018-03-04T08:21:53.255Z,49.50
2018-03-04T08:24:32.770Z,62.83
2018-03-04T08:27:12.504Z,70.13
2018-03-04T08:29:40.110Z,57.57
2018-03-04T08:32:07.735Z,67.80
2018-03-04T08:34:35.440Z,53.63
2018-03-04T08:37:03.049Z,52.57
2018-03-04T08:39:31.486Z,57.10
2018-03-04T08:41:59.821Z,58.57
2018-03-04T08:44:28.493Z,52.70
2018-03-04T08:46:59.729Z,59.13
2018-03-04T08:49:27.396Z,57.00
2018-03-04T08:51:54.971Z,56.73
2018-03-04T08:54:22.906Z,63.97
2018-03-04T08:56:50.523Z,56.40
2018-03-04T08:59:18.316Z,59.20
2018-03-04T09:01:48.575Z,54.73
2018-03-04T09:04:16.194Z,48.47
2018-03-04T09:06:43.765Z,50.60
2018-03-04T09:09:11.760Z,54.73
2018-03-04T09:11:39.337Z,53.00
2018-03-04T09:14:06.955Z,43.40
2018-03-04T09:16:34.767Z,49.37
2018-03-04T09:19:02.344Z,53.23
2018-03-04T09:21:30.560Z,51.77
2018-03-04T09:23:58.517Z,51.07
2018-03-04T09:26:26.097Z,57.77
2018-03-04T09:28:53.762Z,51.73
2018-03-04T09:31:23.060Z,50.47
2018-03-04T09:33:50.648Z,56.20
2018-03-04T09:36:18.199Z,54.60
2018-03-04T09:38:45.801Z,46.10
2018-03-04T09:41:13.436Z,55.07
2018-03-04T09:43:41.051Z,51.03
2018-03-04T09:46:08.612Z,47.40
2018-03-04T09:48:36.189Z,48.97
2018-03-04T09:51:03.812Z,60.80
2018-03-04T09:53:32.076Z,53.10
2018-03-04T09:55:59.715Z,66.47
2018-03-04T09:58:27.298Z,51.83
2018-03-04T10:00:54.902Z,66.03
2018-03-04T10:03:22.569Z,42.83
2018-03-04T10:05:50.992Z,53.40
2018-03-04T10:08:18.582Z,58.37
2018-03-04T10:10:46.205Z,51.17
2018-03-04T10:13:13.783Z,62.50
2018-03-04T10:15:42.170Z,67.20
2018-03-04T10:18:10.113Z,54.03
2018-03-04T10:20:37.671Z,59.33
2018-03-04T10:23:05.650Z,59.07
2018-03-04T10:25:35.987Z,62.63
2018-03-04T10:28:03.751Z,51.07
2018-03-04T10:30:32.818Z,53.30
2018-03-04T10:33:00.364Z,58.63
2018-03-04T10:35:27.928Z,58.07
2018-03-04T10:37:55.498Z,63.40
2018-03-04T10:40:23.238Z,69.97
2018-03-04T10:42:50.812Z,83.70
2018-03-04T10:45:19.078Z,113.43
2018-03-04T10:47:46.690Z,64.40
2018-03-04T10:50:14.695Z,64.30
2018-03-04T10:52:42.404Z,57.10
2018-03-04T10:55:10.440Z,72.43
2018-03-04T10:57:38.114Z,50.90
2018-03-04T11:00:05.849Z,60.30
2018-03-04T11:02:38.055Z,58.00
2018-03-04T11:05:05.986Z,62.97
2018-03-04T11:07:33.574Z,55.50
2018-03-04T11:10:01.160Z,52.40
2018-03-04T11:12:28.709Z,61.43
2018-03-04T11:14:56.309Z,67.63
2018-03-04T11:17:25.932Z,55.63
2018-03-04T11:19:53.680Z,56.40
2018-03-04T11:22:21.264Z,54.10
2018-03-04T11:24:48.834Z,53.93
2018-03-04T11:27:17.487Z,54.60
2018-03-04T11:29:45.174Z,51.87
2018-03-04T11:32:12.826Z,61.50
2018-03-04T11:34:42.268Z,61.43
2018-03-04T11:37:10.678Z,62.30
2018-03-04T11:39:38.431Z,54.73
2018-03-04T11:42:06.106Z,59.67
2018-03-04T11:44:34.996Z,52.43
2018-03-04T11:47:02.665Z,58.20
2018-03-04T11:49:30.241Z,55.87
2018-03-04T11:51:58.242Z,59.77
2018-03-04T11:54:25.915Z,52.13
2018-03-04T11:56:53.507Z,56.20
2018-03-04T11:59:21.137Z,58.30
2018-03-04T12:01:49.530Z,51.63
2018-03-04T12:04:17.345Z,54.20
2018-03-04T12:06:45.035Z,65.30
2018-03-04T12:09:13.127Z,51.60
2018-03-04T12:11:40.743Z,53.33
2018-03-04T12:14:08.384Z,57.83
2018-03-04T12:16:35.949Z,55.83
2018-03-04T12:19:03.552Z,58.67
2018-03-04T12:21:33.574Z,62.70
2018-03-04T12:24:01.308Z,59.23
2018-03-04T12:26:28.949Z,55.13
2018-03-04T12:28:56.571Z,61.33
2018-03-04T12:31:24.182Z,54.50
2018-03-04T12:33:51.789Z,55.93
2018-03-04T12:36:19.416Z,66.07
2018-03-04T12:38:47.055Z,54.63
2018-03-04T12:41:14.656Z,67.50
2018-03-04T12:43:42.238Z,68.00
2018-03-04T12:46:10.167Z,58.87
2018-03-04T12:48:37.809Z,61.33
2018-03-04T12:51:05.996Z,61.77
2018-03-04T12:53:33.620Z,70.80
2018-03-04T12:56:01.260Z,58.73
2018-03-04T12:58:28.884Z,62.87
2018-03-04T13:00:56.537Z,53.33
2018-03-04T13:03:24.326Z,53.43
2018-03-04T13:05:51.976Z,51.27
2018-03-04T13:08:19.685Z,54.93
2018-03-04T13:10:47.316Z,62.07
2018-03-04T13:13:14.919Z,61.40
2018-03-04T13:15:43.390Z,60.60
2018-03-04T13:18:12.666Z,53.03
2018-03-04T13:20:40.285Z,54.93
2018-03-04T13:23:08.407Z,55.43
2018-03-04T13:25:36.485Z,57.03
2018-03-04T13:28:04.071Z,59.43
2018-03-04T13:30:32.731Z,57.60
2018-03-04T13:33:00.430Z,64.73
2018-03-04T13:35:28.809Z,55.77
2018-03-04T13:37:56.373Z,66.90
2018-03-04T13:40:23.938Z,55.30
2018-03-04T13:42:51.851Z,58.63
2018-03-04T13:45:21.112Z,63.37
2018-03-04T13:47:48.875Z,68.73
2018-03-04T13:50:16.504Z,72.47
2018-03-04T13:52:44.266Z,63.30
2018-03-04T13:55:12.262Z,70.47
2018-03-04T13:57:39.962Z,53.27
2018-03-04T14:00:07.568Z,64.87
2018-03-04T14:02:35.240Z,63.00
2018-03-04T14:05:02.846Z,66.30
2018-03-04T14:07:32.595Z,66.60
2018-03-04T14:10:00.195Z,60.70
2018-03-04T14:12:27.789Z,64.47
2018-03-04T14:14:55.369Z,65.03
2018-03-04T14:17:24.117Z,66.27
2018-03-04T14:19:51.734Z,62.57
2018-03-04T14:22:19.726Z,62.00
2018-03-04T14:24:47.308Z,64.23
2018-03-04T14:27:14.937Z,61.70
2018-03-04T14:29:42.530Z,60.50
2018-03-04T14:32:10.293Z,59.20
2018-03-04T14:34:37.911Z,57.00
2018-03-04T14:37:05.858Z,64.80
2018-03-04T14:39:33.738Z,67.20
2018-03-04T14:42:01.330Z,67.20
2018-03-04T14:44:28.905Z,71.13
2018-03-04T14:46:56.533Z,73.80
2018-03-04T14:49:24.819Z,64.50
2018-03-04T14:51:52.949Z,62.83
2018-03-04T14:54:20.621Z,68.80
2018-03-04T14:56:48.493Z,61.57
2018-03-04T14:59:16.461Z,60.00
2018-03-04T15:01:46.941Z,66.83
2018-03-04T15:04:14.867Z,69.97
2018-03-04T15:06:42.503Z,62.67
2018-03-04T15:09:12.066Z,64.97
2018-03-04T15:11:48.630Z,66.20
2018-03-04T15:14:16.283Z,65.77
2018-03-04T15:16:44.209Z,56.37
2018-03-04T15:19:12.192Z,68.57
2018-03-04T15:21:39.932Z,65.53
2018-03-04T15:24:08.083Z,66.67
2018-03-04T15:26:37.513Z,62.57
2018-03-04T15:29:05.764Z,66.23
2018-03-04T15:31:33.685Z,71.23
2018-03-04T15:34:01.327Z,64.90
2018-03-04T15:36:29.229Z,68.83
2018-03-04T15:38:56.865Z,63.23
2018-03-04T15:41:33.603Z,68.87
2018-03-04T15:44:01.220Z,77.50
2018-03-04T15:46:32.341Z,73.80
2018-03-04T15:48:59.964Z,70.37
2018-03-04T15:51:27.616Z,71.50
2018-03-04T15:53:55.256Z,71.97
2018-03-04T15:56:23.064Z,75.60
2018-03-04T15:58:55.037Z,71.10
2018-03-04T16:01:24.426Z,70.97
2018-03-04T16:03:52.040Z,73.83
2018-03-04T16:06:19.660Z,76.83
2018-03-04T16:08:47.234Z,73.47
2018-03-04T16:11:15.172Z,79.43
2018-03-04T16:13:42.843Z,82.37
2018-03-04T16:16:10.734Z,76.13
2018-03-04T16:18:38.788Z,80.57
2018-03-04T16:21:06.913Z,87.37
2018-03-04T16:23:34.545Z,70.03
2018-03-04T16:26:02.150Z,67.37
2018-03-04T16:28:29.780Z,79.90
2018-03-04T16:30:57.462Z,82.47
2018-03-04T16:33:32.614Z,77.00
2018-03-04T16:36:00.279Z,67.53
2018-03-04T16:38:28.533Z,65.43
2018-03-04T16:40:56.162Z,66.20
2018-03-04T16:43:24.193Z,70.20
2018-03-04T16:45:51.789Z,70.17
2018-03-04T16:48:19.398Z,79.70
2018-03-04T16:50:47.022Z,70.70
2018-03-04T16:53:14.692Z,62.67
2018-03-04T16:55:42.288Z,58.40
2018-03-04T16:58:09.953Z,73.53
2018-03-04T17:00:37.591Z,71.70
2018-03-04T17:03:05.280Z,73.37
2018-03-04T17:05:32.929Z,69.97
2018-03-04T17:08:00.542Z,77.20
2018-03-04T17:10:28.209Z,68.83
2018-03-04T17:12:55.899Z,76.67
2018-03-04T17:15:23.751Z,73.23
2018-03-04T17:17:51.340Z,74.37
2018-03-04T17:20:20.954Z,68.20
2018-03-04T17:22:48.745Z,67.10
2018-03-04T17:25:19.187Z,75.77
2018-03-04T17:27:49.028Z,82.00
2018-03-04T17:32:54.269Z,88.30
2018-03-04T17:35:33.578Z,78.37
2018-03-04T17:38:05.939Z,76.03
2018-03-04T17:40:39.716Z,81.27
2018-03-04T17:48:24.043Z,90.70
2018-03-04T17:51:01.435Z,70.93
2018-03-04T17:53:30.509Z,81.00
2018-03-04T17:56:04.006Z,83.70
2018-03-04T17:58:36.151Z,89.57
2018-03-04T18:03:39.271Z,98.67
2018-03-04T18:08:58.924Z,74.33
2018-03-04T18:11:33.252Z,82.67
2018-03-04T18:14:03.457Z,85.10
2018-03-04T18:16:35.986Z,76.00
2018-03-04T18:21:40.359Z,81.97
2018-03-04T18:24:12.135Z,81.47
2018-03-04T18:27:00.263Z,83.00
2018-03-04T18:29:45.386Z,96.23
2018-03-04T18:32:21.671Z,100.73
2018-03-04T18:34:59.569Z,88.47
2018-03-04T18:42:46.657Z,77.10
2018-03-04T18:45:22.212Z,81.70
2018-03-04T18:50:31.478Z,85.33
2018-03-04T18:53:06.213Z,87.33
2018-03-04T18:55:39.005Z,85.70
2018-03-04T18:58:14.682Z,88.33
2018-03-04T19:06:50.201Z,83.93
2018-03-04T19:22:08.520Z,93.23
2018-03-04T19:24:43.857Z,94.00
2018-03-04T19:27:15.141Z,101.47
2018-03-04T19:32:25.913Z,91.00
2018-03-04T19:34:57.534Z,97.03
2018-03-04T19:37:27.356Z,93.30
2018-03-04T19:39:59.071Z,86.37
2018-03-04T19:42:27.873Z,99.83
2018-03-04T19:44:56.351Z,111.90
2018-03-04T19:47:30.557Z,97.93
2018-03-04T19:49:58.585Z,90.20
2018-03-04T19:52:26.498Z,96.93
2018-03-04T19:54:54.157Z,85.80
2018-03-04T19:57:22.027Z,88.63
2018-03-04T19:59:59.015Z,88.97
2018-03-04T20:02:34.994Z,89.47
2018-03-04T20:05:02.909Z,96.40
2018-03-04T20:07:31.773Z,100.37
2018-03-04T20:10:01.057Z,99.47
2018-03-04T20:12:29.548Z,94.27
2018-03-04T20:14:58.714Z,96.67
2018-03-04T20:17:27.622Z,83.63
2018-03-04T20:19:56.062Z,102.97
2018-03-04T20:22:24.770Z,93.87
2018-03-04T20:24:53.055Z,100.47
2018-03-04T20:27:24.793Z,98.37
2018-03-04T20:29:53.202Z,95.53
2018-03-04T20:32:25.447Z,93.70
2018-03-04T20:34:55.358Z,103.07
2018-03-04T20:37:24.141Z,95.97
2018-03-04T20:42:29.087Z,95.33
2018-03-04T20:44:59.131Z,101.67
2018-03-04T20:47:26.927Z,100.50
2018-03-04T20:49:54.662Z,100.70
2018-03-04T20:52:23.403Z,99.50
2018-03-04T20:54:51.403Z,99.10
2018-03-04T20:57:19.389Z,97.37
2018-03-04T20:59:47.124Z,89.60
2018-03-04T21:02:18.790Z,86.47
2018-03-04T21:04:46.578Z,96.93
2018-03-04T21:07:14.567Z,89.07
2018-03-04T21:09:42.646Z,101.57
2018-03-04T21:12:10.418Z,90.57
2018-03-04T21:14:38.072Z,93.00
2018-03-04T21:17:06.476Z,111.00
2018-03-04T21:19:36.016Z,90.13
2018-03-04T21:22:03.728Z,101.40
2018-03-04T21:24:31.447Z,102.70
2018-03-04T21:26:59.157Z,91.43
2018-03-04T21:29:27.525Z,111.47
2018-03-04T21:31:55.960Z,96.87
2018-03-04T21:34:24.824Z,104.93
2018-03-04T21:36:54.252Z,103.57
2018-03-04T21:39:22.097Z,103.30
2018-03-04T21:41:50.106Z,101.00
2018-03-04T21:44:17.822Z,82.67
2018-03-04T21:46:45.518Z,99.47
2018-03-04T21:49:13.812Z,108.73
2018-03-04T21:51:42.088Z,109.57
2018-03-04T21:54:09.889Z,114.83
2018-03-04T21:56:38.892Z,100.07
2018-03-04T21:59:10.109Z,97.17
2018-03-04T22:01:38.109Z,94.27
2018-03-04T22:04:06.224Z,102.90
2018-03-04T22:06:33.889Z,108.50
2018-03-04T22:09:01.974Z,112.63
2018-03-04T22:11:30.300Z,107.60
2018-03-04T22:13:58.127Z,100.27
2018-03-04T22:16:25.977Z,107.20
2018-03-04T22:18:53.583Z,90.30
2018-03-04T22:21:21.479Z,106.37
2018-03-04T22:23:52.563Z,116.57
2018-03-04T22:26:20.151Z,98.13
2018-03-04T22:28:48.692Z,103.30
2018-03-04T22:31:17.377Z,102.63
2018-03-04T22:33:49.014Z,91.30
2018-03-04T22:36:19.497Z,85.70
2018-03-04T22:38:47.150Z,109.97
2018-03-04T22:41:15.033Z,100.17
2018-03-04T22:43:42.608Z,90.03
2018-03-04T22:46:10.415Z,104.70
2018-03-04T22:48:38.222Z,101.03
2018-03-04T22:51:06.535Z,100.90
2018-03-04T22:53:34.246Z,103.70
2018-03-04T22:56:02.005Z,87.70
2018-03-04T22:58:29.672Z,99.77
2018-03-04T23:00:58.251Z,99.27
2018-03-04T23:03:27.272Z,92.73
2018-03-04T23:05:55.119Z,92.73
2018-03-04T23:08:24.106Z,116.33
2018-03-04T23:10:52.050Z,97.43
2018-03-04T23:13:20.234Z,126.03
2018-03-04T23:15:47.879Z,96.87
2018-03-04T23:18:20.600Z,96.27
2018-03-04T23:20:49.025Z,99.33
2018-03-04T23:23:18.145Z,101.33
2018-03-04T23:25:46.375Z,111.07
2018-03-04T23:28:14.150Z,110.63
2018-03-04T23:30:41.847Z,97.57
2018-03-04T23:33:12.254Z,102.00
2018-03-04T23:35:39.903Z,112.67
2018-03-04T23:38:07.588Z,113.10
2018-03-04T23:40:35.265Z,106.40
2018-03-04T23:43:03.031Z,118.27
2018-03-04T23:45:32.084Z,95.50
2018-03-04T23:48:01.283Z,108.77
2018-03-04T23:50:28.896Z,99.20
2018-03-04T23:52:56.825Z,111.80
2018-03-04T23:55:24.762Z,101.80
2018-03-04T23:57:52.479Z,106.33
